sensor_id;sensor_type;location;lat;lon;timestamp;pressure;altitude;pressure_sealevel;temperature;humidity
40245;BME280;25963;42.694;23.600;2023-03-19T00:00:14;95773.41;;;-0.73;100.00
40245;BME280;25963;42.694;23.600;2023-03-19T00:02:40;95779.94;;;-0.69;100.00
40245;BME280;25963;42.694;23.600;2023-03-19T00:05:06;95777.63;;;-0.72;100.00
40245;BME280;25963;42.694;23.600;2023-03-19T00:07:32;95783.09;;;-0.65;100.00
40245;BME280;25963;42.694;23.600;2023-03-19T00:09:57;95785.44;;;-0.62;100.00
40245;BME280;25963;42.694;23.600;2023-03-19T00:12:23;95774.22;;;-0.63;100.00
40245;BME280;25963;42.694;23.600;2023-03-19T00:14:48;95772.75;;;-0.65;100.00
40245;BME280;25963;42.694;23.600;2023-03-19T00:17:14;95782.97;;;-0.64;100.00
40245;BME280;25963;42.694;23.600;2023-03-19T00:19:40;95774.50;;;-0.66;100.00
40245;BME280;25963;42.694;23.600;2023-03-19T00:22:05;95767.13;;;-0.80;100.00
40245;BME280;25963;42.694;23.600;2023-03-19T00:24:31;95778.16;;;-0.78;100.00
40245;BME280;25963;42.694;23.600;2023-03-19T00:26:57;95757.94;;;-0.84;100.00
40245;BME280;25963;42.694;23.600;2023-03-19T00:29:22;95765.34;;;-0.80;100.00
40245;BME280;25963;42.694;23.600;2023-03-19T00:31:48;95773.13;;;-0.80;100.00
40245;BME280;25963;42.694;23.600;2023-03-19T00:34:14;95758.91;;;-0.95;100.00
40245;BME280;25963;42.694;23.600;2023-03-19T00:36:42;95775.06;;;-1.03;100.00
40245;BME280;25963;42.694;23.600;2023-03-19T00:39:08;95750.50;;;-1.18;100.00
40245;BME280;25963;42.694;23.600;2023-03-19T00:41:33;95760.31;;;-1.12;100.00
40245;BME280;25963;42.694;23.600;2023-03-19T00:43:58;95763.16;;;-1.15;100.00
40245;BME280;25963;42.694;23.600;2023-03-19T00:46:24;95752.25;;;-1.19;100.00
40245;BME280;25963;42.694;23.600;2023-03-19T00:48:50;95757.81;;;-1.23;100.00
40245;BME280;25963;42.694;23.600;2023-03-19T00:51:19;95751.97;;;-1.25;100.00
40245;BME280;25963;42.694;23.600;2023-03-19T00:53:46;95735.97;;;-1.40;100.00
40245;BME280;25963;42.694;23.600;2023-03-19T00:56:13;95753.13;;;-1.39;100.00
40245;BME280;25963;42.694;23.600;2023-03-19T00:58:39;95753.00;;;-1.38;100.00
40245;BME280;25963;42.694;23.600;2023-03-19T01:01:06;95731.97;;;-1.75;100.00
40245;BME280;25963;42.694;23.600;2023-03-19T01:03:32;95732.28;;;-1.68;100.00
40245;BME280;25963;42.694;23.600;2023-03-19T01:05:57;95730.19;;;-1.74;100.00
40245;BME280;25963;42.694;23.600;2023-03-19T01:08:23;95744.03;;;-1.64;100.00
40245;BME280;25963;42.694;23.600;2023-03-19T01:10:49;95740.09;;;-1.58;100.00
40245;BME280;25963;42.694;23.600;2023-03-19T01:13:15;95743.56;;;-1.69;100.00
40245;BME280;25963;42.694;23.600;2023-03-19T01:15:42;95743.28;;;-1.76;100.00
40245;BME280;25963;42.694;23.600;2023-03-19T01:18:08;95733.75;;;-1.75;100.00
40245;BME280;25963;42.694;23.600;2023-03-19T01:20:35;95712.59;;;-1.80;100.00
40245;BME280;25963;42.694;23.600;2023-03-19T01:23:02;95728.63;;;-1.66;100.00
40245;BME280;25963;42.694;23.600;2023-03-19T01:25:28;95715.84;;;-1.88;100.00
40245;BME280;25963;42.694;23.600;2023-03-19T01:27:54;95712.25;;;-1.76;100.00
40245;BME280;25963;42.694;23.600;2023-03-19T01:30:19;95725.66;;;-1.61;100.00
40245;BME280;25963;42.694;23.600;2023-03-19T01:32:45;95723.88;;;-1.61;100.00
40245;BME280;25963;42.694;23.600;2023-03-19T01:35:11;95724.41;;;-1.67;100.00
40245;BME280;25963;42.694;23.600;2023-03-19T01:37:37;95732.19;;;-1.57;100.00
40245;BME280;25963;42.694;23.600;2023-03-19T01:40:03;95726.59;;;-1.62;100.00
40245;BME280;25963;42.694;23.600;2023-03-19T01:42:30;95725.41;;;-1.58;100.00
40245;BME280;25963;42.694;23.600;2023-03-19T01:44:56;95730.84;;;-1.61;100.00
40245;BME280;25963;42.694;23.600;2023-03-19T01:47:35;95730.69;;;-1.59;100.00
40245;BME280;25963;42.694;23.600;2023-03-19T01:50:02;95700.50;;;-1.80;100.00
40245;BME280;25963;42.694;23.600;2023-03-19T01:52:31;95700.38;;;-1.78;100.00
40245;BME280;25963;42.694;23.600;2023-03-19T01:55:00;95717.91;;;-1.82;100.00
40245;BME280;25963;42.694;23.600;2023-03-19T01:57:27;95723.34;;;-1.85;100.00
40245;BME280;25963;42.694;23.600;2023-03-19T01:59:56;95731.66;;;-1.81;100.00
40245;BME280;25963;42.694;23.600;2023-03-19T02:02:29;95729.78;;;-1.79;100.00
40245;BME280;25963;42.694;23.600;2023-03-19T02:05:00;95712.16;;;-1.86;100.00
40245;BME280;25963;42.694;23.600;2023-03-19T02:07:29;95732.84;;;-1.86;100.00
40245;BME280;25963;42.694;23.600;2023-03-19T02:09:56;95736.78;;;-1.91;100.00
40245;BME280;25963;42.694;23.600;2023-03-19T02:12:22;95740.00;;;-1.99;100.00
40245;BME280;25963;42.694;23.600;2023-03-19T02:14:48;95717.16;;;-2.15;100.00
40245;BME280;25963;42.694;23.600;2023-03-19T02:17:13;95735.19;;;-2.03;100.00
40245;BME280;25963;42.694;23.600;2023-03-19T02:19:48;95748.00;;;-2.02;100.00
40245;BME280;25963;42.694;23.600;2023-03-19T02:22:20;95745.97;;;-2.19;100.00
40245;BME280;25963;42.694;23.600;2023-03-19T02:25:00;95723.25;;;-2.37;100.00
40245;BME280;25963;42.694;23.600;2023-03-19T02:27:27;95727.34;;;-2.34;100.00
40245;BME280;25963;42.694;23.600;2023-03-19T02:29:52;95720.09;;;-2.40;100.00
40245;BME280;25963;42.694;23.600;2023-03-19T02:32:18;95734.84;;;-2.31;100.00
40245;BME280;25963;42.694;23.600;2023-03-19T02:34:43;95733.53;;;-2.25;100.00
40245;BME280;25963;42.694;23.600;2023-03-19T02:37:28;95734.75;;;-2.30;100.00
40245;BME280;25963;42.694;23.600;2023-03-19T02:39:58;95732.19;;;-2.41;100.00
40245;BME280;25963;42.694;23.600;2023-03-19T02:42:29;95741.09;;;-2.34;100.00
40245;BME280;25963;42.694;23.600;2023-03-19T02:44:55;95737.84;;;-2.47;100.00
40245;BME280;25963;42.694;23.600;2023-03-19T02:47:20;95743.41;;;-2.31;100.00
40245;BME280;25963;42.694;23.600;2023-03-19T02:49:46;95741.53;;;-2.28;100.00
40245;BME280;25963;42.694;23.600;2023-03-19T02:52:11;95740.84;;;-2.31;100.00
40245;BME280;25963;42.694;23.600;2023-03-19T02:54:37;95730.56;;;-2.42;100.00
40245;BME280;25963;42.694;23.600;2023-03-19T02:57:03;95740.66;;;-2.39;100.00
40245;BME280;25963;42.694;23.600;2023-03-19T02:59:29;95722.50;;;-2.27;100.00
40245;BME280;25963;42.694;23.600;2023-03-19T03:01:55;95707.06;;;-2.39;100.00
40245;BME280;25963;42.694;23.600;2023-03-19T03:04:20;95717.81;;;-2.34;100.00
40245;BME280;25963;42.694;23.600;2023-03-19T03:06:46;95734.25;;;-2.23;100.00
40245;BME280;25963;42.694;23.600;2023-03-19T03:09:12;95741.34;;;-2.16;100.00
40245;BME280;25963;42.694;23.600;2023-03-19T03:11:38;95748.53;;;-2.19;100.00
40245;BME280;25963;42.694;23.600;2023-03-19T03:14:06;95729.00;;;-2.33;100.00
40245;BME280;25963;42.694;23.600;2023-03-19T03:16:31;95744.69;;;-2.25;100.00
40245;BME280;25963;42.694;23.600;2023-03-19T03:18:58;95743.66;;;-2.34;100.00
40245;BME280;25963;42.694;23.600;2023-03-19T03:21:23;95745.66;;;-2.26;100.00
40245;BME280;25963;42.694;23.600;2023-03-19T03:23:49;95750.25;;;-2.30;100.00
40245;BME280;25963;42.694;23.600;2023-03-19T03:26:15;95754.59;;;-2.30;100.00
40245;BME280;25963;42.694;23.600;2023-03-19T03:28:41;95729.66;;;-2.52;100.00
40245;BME280;25963;42.694;23.600;2023-03-19T03:31:07;95758.56;;;-2.58;100.00
40245;BME280;25963;42.694;23.600;2023-03-19T03:33:33;95757.56;;;-2.46;100.00
40245;BME280;25963;42.694;23.600;2023-03-19T03:35:59;95750.38;;;-2.42;100.00
40245;BME280;25963;42.694;23.600;2023-03-19T03:38:25;95756.41;;;-2.42;100.00
40245;BME280;25963;42.694;23.600;2023-03-19T03:40:51;95723.03;;;-2.66;100.00
40245;BME280;25963;42.694;23.600;2023-03-19T03:43:17;95726.94;;;-2.83;100.00
40245;BME280;25963;42.694;23.600;2023-03-19T03:45:45;95760.91;;;-2.66;100.00
40245;BME280;25963;42.694;23.600;2023-03-19T03:48:12;95757.16;;;-2.62;100.00
40245;BME280;25963;42.694;23.600;2023-03-19T03:50:37;95759.75;;;-2.62;100.00
40245;BME280;25963;42.694;23.600;2023-03-19T03:53:03;95766.19;;;-2.57;100.00
40245;BME280;25963;42.694;23.600;2023-03-19T03:55:29;95773.00;;;-2.67;100.00
40245;BME280;25963;42.694;23.600;2023-03-19T03:57:56;95765.06;;;-2.75;100.00
40245;BME280;25963;42.694;23.600;2023-03-19T04:00:21;95793.00;;;-2.69;100.00
40245;BME280;25963;42.694;23.600;2023-03-19T04:02:48;95791.72;;;-2.74;100.00
40245;BME280;25963;42.694;23.600;2023-03-19T04:05:14;95765.56;;;-2.92;100.00
40245;BME280;25963;42.694;23.600;2023-03-19T04:07:39;95787.47;;;-2.76;100.00
40245;BME280;25963;42.694;23.600;2023-03-19T04:10:05;95787.94;;;-2.70;100.00
40245;BME280;25963;42.694;23.600;2023-03-19T04:12:31;95783.72;;;-2.71;100.00
40245;BME280;25963;42.694;23.600;2023-03-19T04:14:57;95781.38;;;-2.74;100.00
40245;BME280;25963;42.694;23.600;2023-03-19T04:17:23;95768.97;;;-2.92;100.00
40245;BME280;25963;42.694;23.600;2023-03-19T04:19:48;95791.25;;;-2.80;100.00
40245;BME280;25963;42.694;23.600;2023-03-19T04:22:14;95789.13;;;-2.86;100.00
40245;BME280;25963;42.694;23.600;2023-03-19T04:24:40;95792.19;;;-2.92;100.00
40245;BME280;25963;42.694;23.600;2023-03-19T04:27:06;95793.34;;;-2.85;100.00
40245;BME280;25963;42.694;23.600;2023-03-19T04:29:31;95795.59;;;-2.91;100.00
40245;BME280;25963;42.694;23.600;2023-03-19T04:31:57;95799.00;;;-2.91;100.00
40245;BME280;25963;42.694;23.600;2023-03-19T04:34:22;95765.56;;;-3.15;100.00
40245;BME280;25963;42.694;23.600;2023-03-19T04:36:48;95790.00;;;-3.08;100.00
40245;BME280;25963;42.694;23.600;2023-03-19T04:39:15;95797.84;;;-3.09;100.00
40245;BME280;25963;42.694;23.600;2023-03-19T04:41:40;95800.91;;;-3.04;100.00
40245;BME280;25963;42.694;23.600;2023-03-19T04:44:06;95798.41;;;-3.06;100.00
40245;BME280;25963;42.694;23.600;2023-03-19T04:46:31;95794.78;;;-3.14;100.00
40245;BME280;25963;42.694;23.600;2023-03-19T04:48:57;95813.47;;;-3.11;100.00
40245;BME280;25963;42.694;23.600;2023-03-19T04:51:23;95806.53;;;-2.99;100.00
40245;BME280;25963;42.694;23.600;2023-03-19T04:53:49;95809.88;;;-2.76;100.00
40245;BME280;25963;42.694;23.600;2023-03-19T04:56:14;95813.53;;;-2.67;100.00
40245;BME280;25963;42.694;23.600;2023-03-19T04:58:41;95811.16;;;-2.48;100.00
40245;BME280;25963;42.694;23.600;2023-03-19T05:01:06;95809.09;;;-2.01;100.00
40245;BME280;25963;42.694;23.600;2023-03-19T05:03:32;95801.56;;;-1.51;100.00
40245;BME280;25963;42.694;23.600;2023-03-19T05:05:58;95809.94;;;-0.76;100.00
40245;BME280;25963;42.694;23.600;2023-03-19T05:08:23;95811.31;;;-0.03;100.00
40245;BME280;25963;42.694;23.600;2023-03-19T05:10:49;95812.41;;;0.24;95.85
40245;BME280;25963;42.694;23.600;2023-03-19T05:13:14;95811.28;;;0.36;93.03
40245;BME280;25963;42.694;23.600;2023-03-19T05:15:41;95799.50;;;0.99;89.30
40245;BME280;25963;42.694;23.600;2023-03-19T05:18:07;95787.41;;;1.45;86.05
40245;BME280;25963;42.694;23.600;2023-03-19T05:20:33;95805.78;;;2.07;81.97
40245;BME280;25963;42.694;23.600;2023-03-19T05:22:59;95804.84;;;2.51;78.96
40245;BME280;25963;42.694;23.600;2023-03-19T05:25:25;95805.59;;;2.96;77.49
40245;BME280;25963;42.694;23.600;2023-03-19T05:27:51;95809.63;;;3.16;75.93
40245;BME280;25963;42.694;23.600;2023-03-19T05:30:16;95812.41;;;3.57;74.18
40245;BME280;25963;42.694;23.600;2023-03-19T05:32:43;95803.59;;;4.42;70.82
40245;BME280;25963;42.694;23.600;2023-03-19T05:35:10;95803.41;;;4.51;69.25
40245;BME280;25963;42.694;23.600;2023-03-19T05:37:37;95789.34;;;4.77;68.60
40245;BME280;25963;42.694;23.600;2023-03-19T05:40:02;95788.72;;;4.42;68.32
40245;BME280;25963;42.694;23.600;2023-03-19T05:42:28;95795.25;;;4.79;67.55
40245;BME280;25963;42.694;23.600;2023-03-19T05:44:53;95801.09;;;4.81;67.47
40245;BME280;25963;42.694;23.600;2023-03-19T05:47:19;95762.75;;;4.73;69.76
40245;BME280;25963;42.694;23.600;2023-03-19T05:49:45;95793.25;;;5.45;67.71
40245;BME280;25963;42.694;23.600;2023-03-19T05:52:11;95797.59;;;5.61;66.84
40245;BME280;25963;42.694;23.600;2023-03-19T05:54:37;95787.97;;;5.53;67.25
40245;BME280;25963;42.694;23.600;2023-03-19T05:57:02;95790.16;;;5.41;68.62
40245;BME280;25963;42.694;23.600;2023-03-19T05:59:28;95789.22;;;5.34;69.00
40245;BME280;25963;42.694;23.600;2023-03-19T06:01:53;95780.19;;;4.97;70.08
40245;BME280;25963;42.694;23.600;2023-03-19T06:04:19;95781.03;;;5.37;70.51
40245;BME280;25963;42.694;23.600;2023-03-19T06:06:45;95780.44;;;5.58;69.77
40245;BME280;25963;42.694;23.600;2023-03-19T06:09:11;95780.47;;;5.50;67.31
40245;BME280;25963;42.694;23.600;2023-03-19T06:11:37;95784.56;;;5.53;70.26
40245;BME280;25963;42.694;23.600;2023-03-19T06:14:05;95779.25;;;5.69;70.98
40245;BME280;25963;42.694;23.600;2023-03-19T06:16:33;95785.41;;;5.76;67.17
40245;BME280;25963;42.694;23.600;2023-03-19T06:18:59;95783.41;;;5.55;67.85
40245;BME280;25963;42.694;23.600;2023-03-19T06:21:24;95772.63;;;5.81;68.46
40245;BME280;25963;42.694;23.600;2023-03-19T06:23:54;95775.22;;;5.89;67.72
40245;BME280;25963;42.694;23.600;2023-03-19T06:26:20;95783.03;;;5.27;66.73
40245;BME280;25963;42.694;23.600;2023-03-19T06:28:45;95781.25;;;5.19;67.20
40245;BME280;25963;42.694;23.600;2023-03-19T06:31:10;95786.19;;;5.06;69.06
40245;BME280;25963;42.694;23.600;2023-03-19T06:33:36;95780.22;;;4.73;71.07
40245;BME280;25963;42.694;23.600;2023-03-19T06:36:02;95765.91;;;5.08;73.73
40245;BME280;25963;42.694;23.600;2023-03-19T06:38:27;95785.19;;;5.23;70.25
40245;BME280;25963;42.694;23.600;2023-03-19T06:40:53;95784.00;;;5.26;69.64
40245;BME280;25963;42.694;23.600;2023-03-19T06:43:18;95791.38;;;5.14;71.70
40245;BME280;25963;42.694;23.600;2023-03-19T06:45:44;95792.50;;;5.28;71.05
40245;BME280;25963;42.694;23.600;2023-03-19T06:48:11;95797.50;;;5.46;69.87
40245;BME280;25963;42.694;23.600;2023-03-19T06:50:36;95790.53;;;5.30;71.50
40245;BME280;25963;42.694;23.600;2023-03-19T06:53:04;95796.28;;;5.17;70.17
40245;BME280;25963;42.694;23.600;2023-03-19T06:55:36;95792.06;;;5.56;71.49
40245;BME280;25963;42.694;23.600;2023-03-19T06:58:01;95799.41;;;5.60;71.36
40245;BME280;25963;42.694;23.600;2023-03-19T07:00:27;95793.75;;;5.80;72.34
40245;BME280;25963;42.694;23.600;2023-03-19T07:02:52;95800.53;;;5.66;68.90
40245;BME280;25963;42.694;23.600;2023-03-19T07:05:18;95780.00;;;5.46;71.18
40245;BME280;25963;42.694;23.600;2023-03-19T07:07:43;95804.00;;;5.58;68.43
40245;BME280;25963;42.694;23.600;2023-03-19T07:10:09;95796.59;;;5.62;70.14
40245;BME280;25963;42.694;23.600;2023-03-19T07:12:35;95793.38;;;5.60;69.82
40245;BME280;25963;42.694;23.600;2023-03-19T07:15:00;95795.78;;;6.01;72.90
40245;BME280;25963;42.694;23.600;2023-03-19T07:17:26;95798.94;;;6.19;72.26
40245;BME280;25963;42.694;23.600;2023-03-19T07:19:51;95798.81;;;6.12;67.20
40245;BME280;25963;42.694;23.600;2023-03-19T07:22:17;95791.19;;;6.49;70.82
40245;BME280;25963;42.694;23.600;2023-03-19T07:24:43;95793.75;;;6.57;67.46
40245;BME280;25963;42.694;23.600;2023-03-19T07:27:09;95791.22;;;6.63;67.80
40245;BME280;25963;42.694;23.600;2023-03-19T07:29:35;95780.63;;;6.95;71.34
40245;BME280;25963;42.694;23.600;2023-03-19T07:32:01;95786.78;;;7.02;64.95
40245;BME280;25963;42.694;23.600;2023-03-19T07:34:26;95775.56;;;7.23;74.38
40245;BME280;25963;42.694;23.600;2023-03-19T07:36:52;95783.63;;;7.21;61.63
40245;BME280;25963;42.694;23.600;2023-03-19T07:39:18;95768.78;;;7.28;62.25
40245;BME280;25963;42.694;23.600;2023-03-19T07:41:44;95773.88;;;7.15;66.03
40245;BME280;25963;42.694;23.600;2023-03-19T07:44:11;95778.81;;;7.40;63.67
40245;BME280;25963;42.694;23.600;2023-03-19T07:46:37;95776.63;;;7.58;63.54
40245;BME280;25963;42.694;23.600;2023-03-19T07:49:02;95767.19;;;7.78;65.92
40245;BME280;25963;42.694;23.600;2023-03-19T07:51:28;95744.69;;;7.91;73.46
40245;BME280;25963;42.694;23.600;2023-03-19T07:53:53;95766.03;;;8.24;69.30
40245;BME280;25963;42.694;23.600;2023-03-19T07:56:19;95753.72;;;8.46;71.78
40245;BME280;25963;42.694;23.600;2023-03-19T07:58:45;95753.88;;;8.66;67.96
40245;BME280;25963;42.694;23.600;2023-03-19T08:01:10;95758.81;;;8.76;64.44
40245;BME280;25963;42.694;23.600;2023-03-19T08:03:36;95764.19;;;8.89;70.26
40245;BME280;25963;42.694;23.600;2023-03-19T08:06:01;95763.59;;;9.22;73.21
40245;BME280;25963;42.694;23.600;2023-03-19T08:08:27;95763.59;;;9.22;69.67
40245;BME280;25963;42.694;23.600;2023-03-19T08:10:53;95767.72;;;9.37;62.53
40245;BME280;25963;42.694;23.600;2023-03-19T08:13:19;95765.72;;;9.46;64.28
40245;BME280;25963;42.694;23.600;2023-03-19T08:15:44;95772.63;;;9.54;59.29
40245;BME280;25963;42.694;23.600;2023-03-19T08:18:10;95770.31;;;9.31;54.68
40245;BME280;25963;42.694;23.600;2023-03-19T08:20:35;95754.81;;;9.56;62.51
40245;BME280;25963;42.694;23.600;2023-03-19T08:23:01;95763.47;;;9.91;58.49
40245;BME280;25963;42.694;23.600;2023-03-19T08:25:27;95749.34;;;10.12;62.17
40245;BME280;25963;42.694;23.600;2023-03-19T08:27:57;95752.59;;;10.14;60.20
40245;BME280;25963;42.694;23.600;2023-03-19T08:30:22;95756.13;;;10.41;55.68
40245;BME280;25963;42.694;23.600;2023-03-19T08:32:47;95749.34;;;10.25;53.74
40245;BME280;25963;42.694;23.600;2023-03-19T08:35:15;95742.44;;;10.11;57.84
40245;BME280;25963;42.694;23.600;2023-03-19T08:37:40;95742.53;;;10.44;58.73
40245;BME280;25963;42.694;23.600;2023-03-19T08:40:06;95736.03;;;10.67;52.38
40245;BME280;25963;42.694;23.600;2023-03-19T08:42:32;95732.38;;;10.68;56.12
40245;BME280;25963;42.694;23.600;2023-03-19T08:44:58;95734.81;;;10.63;53.36
40245;BME280;25963;42.694;23.600;2023-03-19T08:47:24;95725.88;;;10.57;51.52
40245;BME280;25963;42.694;23.600;2023-03-19T08:49:51;95724.44;;;11.01;63.17
40245;BME280;25963;42.694;23.600;2023-03-19T08:52:18;95712.78;;;11.15;51.47
40245;BME280;25963;42.694;23.600;2023-03-19T08:54:43;95718.03;;;11.35;51.31
40245;BME280;25963;42.694;23.600;2023-03-19T08:57:09;95717.59;;;11.52;57.81
40245;BME280;25963;42.694;23.600;2023-03-19T08:59:35;95713.16;;;11.84;54.98
40245;BME280;25963;42.694;23.600;2023-03-19T09:02:00;95708.78;;;12.09;59.18
40245;BME280;25963;42.694;23.600;2023-03-19T09:04:26;95702.34;;;12.30;56.05
40245;BME280;25963;42.694;23.600;2023-03-19T09:06:51;95697.66;;;12.32;56.85
40245;BME280;25963;42.694;23.600;2023-03-19T09:09:18;95699.09;;;12.53;53.95
40245;BME280;25963;42.694;23.600;2023-03-19T09:11:44;95691.59;;;12.75;56.95
40245;BME280;25963;42.694;23.600;2023-03-19T09:14:10;95673.84;;;12.76;52.08
40245;BME280;25963;42.694;23.600;2023-03-19T09:16:36;95689.41;;;12.91;51.69
40245;BME280;25963;42.694;23.600;2023-03-19T09:19:02;95671.47;;;13.11;57.02
40245;BME280;25963;42.694;23.600;2023-03-19T09:21:28;95679.19;;;13.13;46.49
40245;BME280;25963;42.694;23.600;2023-03-19T09:23:53;95678.91;;;13.21;53.98
40245;BME280;25963;42.694;23.600;2023-03-19T09:26:19;95684.00;;;13.22;50.80
40245;BME280;25963;42.694;23.600;2023-03-19T09:28:45;95687.66;;;13.21;43.28
40245;BME280;25963;42.694;23.600;2023-03-19T09:31:10;95689.16;;;13.36;51.82
40245;BME280;25963;42.694;23.600;2023-03-19T09:33:36;95670.97;;;13.39;47.48
40245;BME280;25963;42.694;23.600;2023-03-19T09:36:02;95686.06;;;13.39;44.41
40245;BME280;25963;42.694;23.600;2023-03-19T09:38:28;95656.47;;;13.05;53.63
40245;BME280;25963;42.694;23.600;2023-03-19T09:44:02;95681.47;;;13.46;45.28
40245;BME280;25963;42.694;23.600;2023-03-19T09:46:32;95662.38;;;13.26;45.73
40245;BME280;25963;42.694;23.600;2023-03-19T09:49:08;95674.44;;;13.58;47.59
40245;BME280;25963;42.694;23.600;2023-03-19T09:51:47;95669.66;;;13.79;47.75
40245;BME280;25963;42.694;23.600;2023-03-19T09:54:44;95659.13;;;14.02;51.23
40245;BME280;25963;42.694;23.600;2023-03-19T09:57:13;95658.34;;;14.13;50.02
40245;BME280;25963;42.694;23.600;2023-03-19T09:59:39;95658.47;;;14.07;53.69
40245;BME280;25963;42.694;23.600;2023-03-19T10:04:55;95659.16;;;14.14;53.15
40245;BME280;25963;42.694;23.600;2023-03-19T10:07:41;95657.81;;;14.35;45.66
40245;BME280;25963;42.694;23.600;2023-03-19T10:16:00;95647.59;;;14.62;43.29
40245;BME280;25963;42.694;23.600;2023-03-19T10:18:30;95644.25;;;14.67;44.13
40245;BME280;25963;42.694;23.600;2023-03-19T10:22:05;95639.28;;;14.58;46.02
40245;BME280;25963;42.694;23.600;2023-03-19T10:24:32;95636.53;;;14.77;46.58
40245;BME280;25963;42.694;23.600;2023-03-19T10:27:21;95638.13;;;14.90;48.55
40245;BME280;25963;42.694;23.600;2023-03-19T10:29:47;95631.44;;;14.75;45.17
40245;BME280;25963;42.694;23.600;2023-03-19T10:32:26;95625.09;;;14.76;48.83
40245;BME280;25963;42.694;23.600;2023-03-19T10:34:57;95609.16;;;14.65;46.50
40245;BME280;25963;42.694;23.600;2023-03-19T10:37:28;95620.81;;;14.99;47.71
40245;BME280;25963;42.694;23.600;2023-03-19T10:39:59;95622.03;;;15.20;48.17
40245;BME280;25963;42.694;23.600;2023-03-19T10:43:12;95622.63;;;15.50;45.94
40245;BME280;25963;42.694;23.600;2023-03-19T10:45:40;95604.34;;;15.54;46.68
40245;BME280;25963;42.694;23.600;2023-03-19T10:48:11;95604.59;;;15.52;47.82
40245;BME280;25963;42.694;23.600;2023-03-19T10:55:45;95588.19;;;16.01;47.99
40245;BME280;25963;42.694;23.600;2023-03-19T10:58:17;95584.06;;;15.93;47.43
40245;BME280;25963;42.694;23.600;2023-03-19T11:00:48;95580.16;;;16.13;42.54
40245;BME280;25963;42.694;23.600;2023-03-19T11:03:36;95569.91;;;16.05;47.04
40245;BME280;25963;42.694;23.600;2023-03-19T11:06:26;95569.50;;;15.39;41.21
40245;BME280;25963;42.694;23.600;2023-03-19T11:09:02;95566.31;;;15.82;43.86
40245;BME280;25963;42.694;23.600;2023-03-19T11:11:45;95555.53;;;16.06;46.30
40245;BME280;25963;42.694;23.600;2023-03-19T11:14:15;95549.56;;;16.32;43.04
40245;BME280;25963;42.694;23.600;2023-03-19T11:19:18;95540.09;;;16.41;43.17
40245;BME280;25963;42.694;23.600;2023-03-19T11:21:53;95540.09;;;16.58;40.03
40245;BME280;25963;42.694;23.600;2023-03-19T11:24:23;95540.53;;;16.72;44.12
40245;BME280;25963;42.694;23.600;2023-03-19T11:26:54;95535.91;;;16.46;41.72
40245;BME280;25963;42.694;23.600;2023-03-19T11:29:20;95532.00;;;16.70;42.98
40245;BME280;25963;42.694;23.600;2023-03-19T11:34:44;95516.00;;;16.70;40.44
40245;BME280;25963;42.694;23.600;2023-03-19T11:37:49;95502.63;;;16.87;44.17
40245;BME280;25963;42.694;23.600;2023-03-19T11:40:29;95505.81;;;17.06;44.02
40245;BME280;25963;42.694;23.600;2023-03-19T11:45:46;95496.69;;;17.24;42.80
40245;BME280;25963;42.694;23.600;2023-03-19T11:48:49;95499.38;;;17.29;46.47
40245;BME280;25963;42.694;23.600;2023-03-19T11:57:07;95483.50;;;17.39;39.54
40245;BME280;25963;42.694;23.600;2023-03-19T12:13:13;95458.78;;;18.13;39.53
40245;BME280;25963;42.694;23.600;2023-03-19T12:24:55;95449.00;;;17.87;35.08
40245;BME280;25963;42.694;23.600;2023-03-19T12:28:03;95449.28;;;18.33;39.64
40245;BME280;25963;42.694;23.600;2023-03-19T12:30:40;95449.38;;;18.06;32.57
40245;BME280;25963;42.694;23.600;2023-03-19T12:33:09;95448.63;;;18.15;36.71
40245;BME280;25963;42.694;23.600;2023-03-19T12:35:39;95443.38;;;18.25;38.19
40245;BME280;25963;42.694;23.600;2023-03-19T12:40:52;95435.91;;;18.33;37.20
40245;BME280;25963;42.694;23.600;2023-03-19T12:43:27;95415.13;;;18.45;35.18
40245;BME280;25963;42.694;23.600;2023-03-19T12:46:06;95432.16;;;18.76;38.83
40245;BME280;25963;42.694;23.600;2023-03-19T12:48:43;95418.56;;;18.88;35.51
40245;BME280;25963;42.694;23.600;2023-03-19T12:51:12;95418.81;;;18.91;35.10
40245;BME280;25963;42.694;23.600;2023-03-19T12:56:16;95418.06;;;19.06;33.83
40245;BME280;25963;42.694;23.600;2023-03-19T12:59:36;95421.72;;;18.80;35.09
40245;BME280;25963;42.694;23.600;2023-03-19T13:02:00;95401.16;;;18.90;35.78
40245;BME280;25963;42.694;23.600;2023-03-19T13:04:31;95391.56;;;19.05;34.89
40245;BME280;25963;42.694;23.600;2023-03-19T13:07:02;95402.00;;;19.01;31.10
40245;BME280;25963;42.694;23.600;2023-03-19T13:09:52;95399.34;;;19.06;35.48
40245;BME280;25963;42.694;23.600;2023-03-19T13:12:25;95399.38;;;19.27;34.51
40245;BME280;25963;42.694;23.600;2023-03-19T13:15:11;95396.91;;;18.95;32.03
40245;BME280;25963;42.694;23.600;2023-03-19T13:22:49;95393.50;;;19.30;32.40
40245;BME280;25963;42.694;23.600;2023-03-19T13:25:20;95387.06;;;19.21;33.46
40245;BME280;25963;42.694;23.600;2023-03-19T13:27:54;95390.25;;;19.23;33.30
40245;BME280;25963;42.694;23.600;2023-03-19T13:30:21;95386.81;;;19.37;34.83
40245;BME280;25963;42.694;23.600;2023-03-19T13:32:49;95382.78;;;19.20;32.67
40245;BME280;25963;42.694;23.600;2023-03-19T13:35:49;95383.06;;;19.49;33.99
40245;BME280;25963;42.694;23.600;2023-03-19T13:38:36;95378.00;;;19.27;33.73
40245;BME280;25963;42.694;23.600;2023-03-19T13:41:02;95380.94;;;19.30;31.07
40245;BME280;25963;42.694;23.600;2023-03-19T13:46:25;95358.44;;;19.31;34.00
40245;BME280;25963;42.694;23.600;2023-03-19T13:48:51;95372.91;;;19.30;33.13
40245;BME280;25963;42.694;23.600;2023-03-19T13:54:11;95364.88;;;19.46;34.69
40245;BME280;25963;42.694;23.600;2023-03-19T13:59:27;95359.78;;;19.29;31.71
40245;BME280;25963;42.694;23.600;2023-03-19T14:01:53;95346.94;;;19.00;31.30
40245;BME280;25963;42.694;23.600;2023-03-19T14:04:32;95352.81;;;19.07;32.56
40245;BME280;25963;42.694;23.600;2023-03-19T14:09:44;95358.16;;;19.07;32.09